Terminal Aerodrome Forecast
Issued by NWS Paducah, KY

Home | Current Version | Previous Version | Text Only | Print | Product List | Glossary On
Versions: 1 2 3 4 5 6 7 8 9 10 11 12 13 14 15 16 17 18 19
594
FTUS43 KPAH 240520
TAFEVV
TAF
KEVV 240520Z 2406/2506 VRB03KT P6SM SCT250
     FM240900 VRB03KT 5SM BR SCT250
     FM241300 34005KT P6SM FEW035
     FM250100 02003KT P6SM SKC=

USA.gov is the U.S. government's official web portal to all federal, state and local government web resources and services.